Terminal Aerodrome Forecast
Issued by NWS

Current Version | Previous Version | Text Only | Print | Product List | Glossary On
Versions: 1 2 3 4 5 6 7 8 9 10 11 12 13 14 15 16
000
FTUS41 KILN 252332
TAFLUK
TAF
KLUK 252332Z 2600/2624 VRB03KT P6SM SCT050
     FM260300 00000KT P6SM SCT250
     FM260600 00000KT 4SM BR SCT250
     FM261300 15006KT P6SM SCT250
     FM261600 18010KT P6SM SCT250=

USA.gov is the U.S. government's official web portal to all federal, state and local government web resources and services.